Wylie, Texas
Current Conditions -  °F | °C
As of 11:35 PM on Wednesday 22 Oct 2014 (Local Time) from KF46 Reporting Station
Clear Clear  
Wind Chill: 67°   Ceiling: Unl
Heat Index: 67°   Visibility: 10mi
Dew Point: 54°   Wind: 6mph
Humidity: 63%   Direction: 110°ESE
Pressure: 30.11"   Gusts: NA
Location:  33.02°N, 96.51°W
Report Text: KF46 230435Z AUTO 11005KT 10SM CLR 19/12 A3011 RMK AO2 T01920120
Loading
Personal Weather Stations






























Interactive Weather Map
Tropical Storm Tracking
New forecast layout! Learn more

10-Day Weather Forecast

Advertisements
Track Severe Weather on mobile